Time;durP1;ratioP1;P1;durP2;ratioP2;P2;SDS_P1;SDS_P2;PMS_P1;PMS_P2;Temp;Humidity;BMP_temperature;BMP_pressure;BME280_temperature;BME280_humidity;BME280_pressure;Samples;Min_cycle;Max_cycle;Signal;HPM_P1;HPM_P2
2022/04/09 00:01:00;;;;;;;0.30;0.30;;;;;;;;;;6315181;22;20156;-86
2022/04/09 00:04:07;;;;;;;0.87;0.63;;;;;;;;;;6314562;22;20185;-84
2022/04/09 00:07:12;;;;;;;0.30;0.30;;;;;;;;;;6313432;22;20165;-87
2022/04/09 00:10:18;;;;;;;0.40;0.40;;;;;;;;;;6314779;22;20146;-88
2022/04/09 00:13:23;;;;;;;0.60;0.60;;;;;;;;;;6315220;22;20180;-88
2022/04/09 00:16:28;;;;;;;0.30;0.30;;;;;;;;;;6313674;22;20200;-86
2022/04/09 00:19:34;;;;;;;0.37;0.37;;;;;;;;;;6315972;22;20169;-88
2022/04/09 00:22:39;;;;;;;0.83;0.73;;;;;;;;;;6316084;22;20280;-88
2022/04/09 00:25:45;;;;;;;0.30;0.30;;;;;;;;;;6316318;22;20214;-85
2022/04/09 00:28:51;;;;;;;0.40;0.40;;;;;;;;;;6317783;22;20184;-88
2022/04/09 00:31:56;;;;;;;0.97;0.73;;;;;;;;;;6317356;22;20515;-85
2022/04/09 00:35:02;;;;;;;0.30;0.30;;;;;;;;;;6317919;22;20169;-85
2022/04/09 00:38:15;;;;;;;3.63;1.50;;;;;;;;;;6299353;22;20185;-87
2022/04/09 00:41:21;;;;;;;4.07;1.60;;;;;;;;;;6297263;22;20168;-87
2022/04/09 00:44:25;;;;;;;3.57;2.00;;;;;;;;;;6316607;22;20173;-87
2022/04/09 00:47:31;;;;;;;2.93;1.50;;;;;;;;;;6315687;22;20243;-85
2022/04/09 00:50:37;;;;;;;3.03;1.50;;;;;;;;;;6317468;22;20169;-85
2022/04/09 00:53:43;;;;;;;4.73;1.80;;;;;;;;;;6318742;22;20165;-86
2022/04/09 00:56:51;;;;;;;4.63;1.90;;;;;;;;;;6298200;22;20189;-86
2022/04/09 00:59:56;;;;;;;4.83;1.87;;;;;;;;;;6298719;22;20165;-85
2022/04/09 01:03:01;;;;;;;4.33;1.87;;;;;;;;;;6316465;22;20229;-88
2022/04/09 01:06:10;;;;;;;3.10;1.63;;;;;;;;;;6318169;22;20176;-86
2022/04/09 01:09:15;;;;;;;4.30;1.90;;;;;;;;;;6317748;22;20168;-86
2022/04/09 01:12:20;;;;;;;4.13;1.80;;;;;;;;;;6298722;22;20169;-88
2022/04/09 01:15:26;;;;;;;3.70;1.80;;;;;;;;;;6299256;22;20184;-85
2022/04/09 01:18:33;;;;;;;4.50;1.77;;;;;;;;;;6317883;22;20176;-85
2022/04/09 01:21:42;;;;;;;4.50;1.90;;;;;;;;;;6316760;22;20173;-87
2022/04/09 01:24:48;;;;;;;5.30;1.83;;;;;;;;;;6316113;22;20517;-86
2022/04/09 01:27:54;;;;;;;3.03;1.60;;;;;;;;;;6315962;22;20487;-87
2022/04/09 01:31:01;;;;;;;5.00;1.83;;;;;;;;;;6315817;22;20620;-87
2022/04/09 01:34:06;;;;;;;3.80;1.80;;;;;;;;;;6297387;22;20149;-86
2022/04/09 01:37:11;;;;;;;3.80;1.53;;;;;;;;;;6316232;22;20193;-88
2022/04/09 01:40:18;;;;;;;4.20;2.33;;;;;;;;;;6316851;22;20173;-85
2022/04/09 01:43:27;;;;;;;4.47;1.90;;;;;;;;;;6316552;22;20211;-87
2022/04/09 01:46:32;;;;;;;4.20;2.00;;;;;;;;;;6314923;22;20165;-87
2022/04/09 01:49:38;;;;;;;1.77;0.90;;;;;;;;;;6316349;22;20158;-85
2022/04/09 01:52:43;;;;;;;4.93;1.00;;;;;;;;;;6316146;22;20623;-86
2022/04/09 01:55:49;;;;;;;2.77;1.47;;;;;;;;;;6315785;22;20490;-85
2022/04/09 01:58:54;;;;;;;2.20;0.70;;;;;;;;;;6315885;22;20168;-88
2022/04/09 02:02:03;;;;;;;2.30;0.90;;;;;;;;;;6297305;22;20161;-85
2022/04/09 02:05:09;;;;;;;1.30;0.80;;;;;;;;;;6312399;22;20180;-85
2022/04/09 02:08:14;;;;;;;2.17;1.00;;;;;;;;;;6296584;22;20168;-85
2022/04/09 02:11:21;;;;;;;5.35;0.70;;;;;;;;;;6315208;22;20620;-82
2022/04/09 02:14:25;;;;;;;0.70;0.50;;;;;;;;;;6315462;22;20185;-86
2022/04/09 02:17:38;;;;;;;0.80;0.50;;;;;;;;;;6315436;22;20204;-85
2022/04/09 02:20:43;;;;;;;1.27;0.55;;;;;;;;;;6314636;22;20207;-86
2022/04/09 02:23:50;;;;;;;0.60;0.60;;;;;;;;;;6314238;22;20153;-86
2022/04/09 02:26:56;;;;;;;0.45;0.45;;;;;;;;;;6297118;22;20169;-86
2022/04/09 02:30:01;;;;;;;1.25;0.70;;;;;;;;;;6315354;22;20223;-86
2022/04/09 02:33:07;;;;;;;3.70;0.85;;;;;;;;;;6313862;22;20165;-85
2022/04/09 02:36:18;;;;;;;1.73;1.05;;;;;;;;;;6314935;22;20196;-85
2022/04/09 02:39:24;;;;;;;1.95;0.98;;;;;;;;;;6315201;22;20173;-85
2022/04/09 02:42:30;;;;;;;3.00;0.70;;;;;;;;;;6315767;22;20174;-87
2022/04/09 02:45:35;;;;;;;1.48;0.80;;;;;;;;;;6315981;22;20168;-88
2022/04/09 02:48:44;;;;;;;1.02;0.82;;;;;;;;;;6315265;22;20169;-85
2022/04/09 02:51:50;;;;;;;2.08;0.90;;;;;;;;;;6298911;22;20187;-87
2022/04/09 02:54:56;;;;;;;1.20;0.70;;;;;;;;;;6314494;22;20612;-86
2022/04/09 02:58:03;;;;;;;1.03;0.60;;;;;;;;;;6315688;22;20174;-84
2022/04/09 03:01:12;;;;;;;1.87;0.80;;;;;;;;;;6298256;22;20161;-86
2022/04/09 03:04:17;;;;;;;0.97;0.80;;;;;;;;;;6315065;22;20291;-86
2022/04/09 03:07:23;;;;;;;0.87;0.60;;;;;;;;;;6316539;22;20181;-86
2022/04/09 03:10:29;;;;;;;0.50;0.50;;;;;;;;;;6318262;22;20276;-84
2022/04/09 03:13:39;;;;;;;2.20;0.80;;;;;;;;;;6317347;22;20173;-86
2022/04/09 03:16:46;;;;;;;1.83;1.33;;;;;;;;;;6314076;22;20203;-85
2022/04/09 03:19:51;;;;;;;1.40;1.10;;;;;;;;;;6316073;22;20268;-87
2022/04/09 03:22:57;;;;;;;2.03;1.40;;;;;;;;;;6316167;22;20181;-86
2022/04/09 03:26:14;;;;;;;2.37;1.70;;;;;;;;;;6313392;22;20168;-84
2022/04/09 03:29:26;;;;;;;2.37;1.40;;;;;;;;;;6315186;22;20161;-85
2022/04/09 03:32:31;;;;;;;1.70;1.10;;;;;;;;;;6316187;22;20219;-85
2022/04/09 03:35:36;;;;;;;2.20;1.20;;;;;;;;;;6316451;22;20281;-87
2022/04/09 03:38:42;;;;;;;1.83;1.30;;;;;;;;;;6316579;22;20168;-85
2022/04/09 03:41:48;;;;;;;1.33;1.23;;;;;;;;;;6299418;22;20214;-85
2022/04/09 03:44:55;;;;;;;1.53;1.30;;;;;;;;;;6299961;22;20208;-84
2022/04/09 03:48:02;;;;;;;4.93;1.20;;;;;;;;;;6299090;22;20283;-84
2022/04/09 03:51:09;;;;;;;1.73;1.10;;;;;;;;;;6299095;22;20166;-86
2022/04/09 03:54:15;;;;;;;1.70;0.97;;;;;;;;;;6318492;22;20164;-84
2022/04/09 03:57:20;;;;;;;1.17;0.90;;;;;;;;;;6314029;22;20235;-84
2022/04/09 04:00:29;;;;;;;1.47;1.30;;;;;;;;;;6315040;22;20181;-85
2022/04/09 04:03:35;;;;;;;2.60;1.20;;;;;;;;;;6314973;22;20503;-86
2022/04/09 04:06:41;;;;;;;1.20;1.10;;;;;;;;;;6313654;22;20165;-85
2022/04/09 04:09:47;;;;;;;7.13;1.60;;;;;;;;;;6314638;22;20619;-85
2022/04/09 04:12:52;;;;;;;2.10;1.10;;;;;;;;;;6314193;22;20247;-87
2022/04/09 04:16:04;;;;;;;1.50;1.20;;;;;;;;;;6295581;22;20185;-85
2022/04/09 04:19:13;;;;;;;1.27;1.00;;;;;;;;;;6314734;22;20224;-86
2022/04/09 04:22:19;;;;;;;1.27;1.00;;;;;;;;;;6314319;22;20185;-88
2022/04/09 04:25:25;;;;;;;4.13;1.50;;;;;;;;;;6313297;22;20165;-82
2022/04/09 04:28:29;;;;;;;5.87;1.20;;;;;;;;;;6314120;22;20235;-85
2022/04/09 04:31:36;;;;;;;1.40;0.60;;;;;;;;;;6314122;22;20169;-87
2022/04/09 04:34:43;;;;;;;0.80;0.60;;;;;;;;;;6296049;22;20165;-82
2022/04/09 04:37:49;;;;;;;1.10;0.70;;;;;;;;;;6314397;22;20660;-87
2022/04/09 04:40:59;;;;;;;2.83;0.90;;;;;;;;;;6296717;22;20173;-83
2022/04/09 04:44:06;;;;;;;2.47;0.70;;;;;;;;;;6296345;22;20507;-83
2022/04/09 04:47:19;;;;;;;2.13;0.90;;;;;;;;;;6296361;22;20169;-83
2022/04/09 04:50:25;;;;;;;1.33;0.77;;;;;;;;;;6313753;22;20218;-87
2022/04/09 04:53:31;;;;;;;3.33;0.87;;;;;;;;;;6315600;22;20255;-86
2022/04/09 04:56:37;;;;;;;2.43;0.90;;;;;;;;;;6314040;22;20272;-85
2022/04/09 04:59:43;;;;;;;1.27;0.70;;;;;;;;;;6313524;22;20211;-84
2022/04/09 05:02:51;;;;;;;1.77;0.90;;;;;;;;;;6313793;22;20173;-84
2022/04/09 05:05:56;;;;;;;1.63;0.87;;;;;;;;;;6313955;22;20496;-87
2022/04/09 05:09:01;;;;;;;1.97;0.80;;;;;;;;;;6314175;22;20221;-84
2022/04/09 05:12:16;;;;;;;1.20;0.90;;;;;;;;;;6314077;22;20166;-88
2022/04/09 05:15:23;;;;;;;1.83;0.90;;;;;;;;;;6314029;22;20210;-86
2022/04/09 05:18:35;;;;;;;2.63;1.20;;;;;;;;;;6313448;22;20191;-86
2022/04/09 05:21:40;;;;;;;2.70;0.90;;;;;;;;;;6314334;22;20255;-86
2022/04/09 05:24:47;;;;;;;1.80;1.00;;;;;;;;;;6314022;22;20189;-85
2022/04/09 05:27:53;;;;;;;1.60;1.00;;;;;;;;;;6297989;22;20181;-86
2022/04/09 05:31:13;;;;;;;1.40;1.00;;;;;;;;;;6296086;22;20222;-86
2022/04/09 05:34:22;;;;;;;2.50;1.40;;;;;;;;;;6313621;22;20168;-86
2022/04/09 05:37:28;;;;;;;3.00;1.30;;;;;;;;;;6313634;22;20204;-84
2022/04/09 05:40:34;;;;;;;2.70;1.50;;;;;;;;;;6313544;22;20173;-85
2022/04/09 05:43:47;;;;;;;1.93;1.20;;;;;;;;;;6313008;22;20169;-85
2022/04/09 05:46:55;;;;;;;1.83;1.20;;;;;;;;;;6314433;22;20184;-83
2022/04/09 05:50:03;;;;;;;1.60;1.10;;;;;;;;;;6314992;22;20283;-85
2022/04/09 05:53:10;;;;;;;2.03;1.50;;;;;;;;;;6297729;22;20255;-84
2022/04/09 05:56:15;;;;;;;3.37;1.70;;;;;;;;;;6313472;22;20490;-86
2022/04/09 05:59:21;;;;;;;1.70;1.20;;;;;;;;;;6312988;22;20160;-85
2022/04/09 06:02:29;;;;;;;2.07;1.57;;;;;;;;;;6297135;22;20177;-85
2022/04/09 06:05:36;;;;;;;2.53;1.57;;;;;;;;;;6313012;22;20215;-85
2022/04/09 06:08:47;;;;;;;3.43;1.67;;;;;;;;;;6313526;22;20162;-84
2022/04/09 06:12:01;;;;;;;3.70;2.17;;;;;;;;;;6314788;22;20197;-86
2022/04/09 06:15:14;;;;;;;5.40;2.80;;;;;;;;;;6312555;22;20196;-82
2022/04/09 06:18:25;;;;;;;5.30;2.63;;;;;;;;;;6296730;22;20192;-86
2022/04/09 06:21:32;;;;;;;4.87;3.00;;;;;;;;;;6311505;22;20173;-85
2022/04/09 06:24:38;;;;;;;5.27;2.90;;;;;;;;;;6293481;22;20215;-85
2022/04/09 06:27:44;;;;;;;3.77;2.23;;;;;;;;;;6294989;22;20169;-85
2022/04/09 06:30:51;;;;;;;7.07;3.70;;;;;;;;;;6313200;22;20249;-84
2022/04/09 06:34:00;;;;;;;4.97;3.23;;;;;;;;;;6313830;22;20169;-85
2022/04/09 06:37:08;;;;;;;6.77;4.10;;;;;;;;;;6311992;22;20280;-86
2022/04/09 06:40:18;;;;;;;9.17;4.20;;;;;;;;;;6311970;22;20172;-86
2022/04/09 06:43:23;;;;;;;8.03;4.70;;;;;;;;;;6311066;22;20196;-86
2022/04/09 06:46:34;;;;;;;9.07;4.93;;;;;;;;;;6312224;22;20211;-84
2022/04/09 06:49:51;;;;;;;10.50;5.13;;;;;;;;;;6312223;22;20248;-86
2022/04/09 06:53:01;;;;;;;11.20;4.97;;;;;;;;;;6313578;22;20584;-86
2022/04/09 06:56:12;;;;;;;9.90;5.20;;;;;;;;;;6312589;22;20243;-85
2022/04/09 06:59:16;;;;;;;8.43;5.17;;;;;;;;;;6310193;22;20189;-86
2022/04/09 07:02:22;;;;;;;8.60;5.43;;;;;;;;;;6312871;22;20211;-86
2022/04/09 07:05:26;;;;;;;9.03;5.63;;;;;;;;;;6313637;22;20168;-85
2022/04/09 07:08:33;;;;;;;10.27;5.57;;;;;;;;;;6312087;22;20844;-86
2022/04/09 07:11:38;;;;;;;13.40;6.57;;;;;;;;;;6312425;22;20180;-86
2022/04/09 07:14:43;;;;;;;13.50;6.67;;;;;;;;;;6314157;22;20173;-85
2022/04/09 07:17:48;;;;;;;10.43;5.77;;;;;;;;;;6311640;22;20271;-85
2022/04/09 07:20:53;;;;;;;11.37;6.60;;;;;;;;;;6294664;22;20168;-84
2022/04/09 07:23:59;;;;;;;12.73;6.90;;;;;;;;;;6312857;22;20169;-87
2022/04/09 07:27:04;;;;;;;12.57;7.10;;;;;;;;;;6313568;22;20165;-85
2022/04/09 07:30:10;;;;;;;14.03;7.63;;;;;;;;;;6312462;22;20243;-85
2022/04/09 07:33:15;;;;;;;15.87;7.33;;;;;;;;;;6312867;22;20169;-84
2022/04/09 07:36:21;;;;;;;18.43;7.50;;;;;;;;;;6313734;22;20187;-86
2022/04/09 07:39:28;;;;;;;13.57;7.17;;;;;;;;;;6317681;22;20184;-85
2022/04/09 07:42:33;;;;;;;14.87;7.43;;;;;;;;;;6302109;22;20173;-86
2022/04/09 07:45:39;;;;;;;12.47;7.20;;;;;;;;;;6318529;22;20264;-85
2022/04/09 07:48:44;;;;;;;13.43;7.63;;;;;;;;;;6314105;22;20184;-86
2022/04/09 07:51:50;;;;;;;13.37;6.83;;;;;;;;;;6311833;22;20229;-85
2022/04/09 07:54:57;;;;;;;13.53;6.63;;;;;;;;;;6311774;22;20203;-85
2022/04/09 07:58:03;;;;;;;12.80;6.13;;;;;;;;;;6312897;22;20193;-85
2022/04/09 08:01:08;;;;;;;13.23;7.13;;;;;;;;;;6315105;22;20215;-85
2022/04/09 08:04:13;;;;;;;10.93;5.63;;;;;;;;;;6313293;22;20168;-85
2022/04/09 08:07:18;;;;;;;11.77;6.03;;;;;;;;;;6296316;22;20211;-85
2022/04/09 08:10:24;;;;;;;17.10;6.20;;;;;;;;;;6315183;22;20204;-86
2022/04/09 08:13:30;;;;;;;12.37;5.23;;;;;;;;;;6313270;22;20718;-86
2022/04/09 08:16:34;;;;;;;8.87;4.83;;;;;;;;;;6316661;22;20197;-87
2022/04/09 08:19:39;;;;;;;9.20;5.17;;;;;;;;;;6314132;22;20204;-86
2022/04/09 08:22:44;;;;;;;8.87;4.50;;;;;;;;;;6315304;22;20172;-88
2022/04/09 08:25:51;;;;;;;9.50;4.60;;;;;;;;;;6315749;22;20169;-88
2022/04/09 08:28:57;;;;;;;12.23;4.60;;;;;;;;;;6318190;22;20165;-87
2022/04/09 08:32:03;;;;;;;10.00;3.90;;;;;;;;;;6319339;22;20616;-85
2022/04/09 08:35:09;;;;;;;6.37;3.37;;;;;;;;;;6299456;22;20162;-87
2022/04/09 08:38:13;;;;;;;8.03;4.40;;;;;;;;;;6314975;22;20188;-88
2022/04/09 08:41:20;;;;;;;9.17;3.83;;;;;;;;;;6317720;22;20172;-88
2022/04/09 08:44:26;;;;;;;6.37;3.37;;;;;;;;;;6316584;22;20169;-87
2022/04/09 08:47:33;;;;;;;8.40;3.20;;;;;;;;;;6317694;22;20173;-86
2022/04/09 08:50:39;;;;;;;7.17;3.53;;;;;;;;;;6319783;22;20214;-88
2022/04/09 08:53:45;;;;;;;8.23;3.40;;;;;;;;;;6320182;22;20280;-88
2022/04/09 08:56:52;;;;;;;8.77;3.53;;;;;;;;;;6318881;22;20174;-87
2022/04/09 08:59:57;;;;;;;8.77;3.63;;;;;;;;;;6298856;22;20192;-85
2022/04/09 09:03:03;;;;;;;9.27;3.63;;;;;;;;;;6317922;22;20192;-87
2022/04/09 09:06:25;;;;;;;4.47;2.63;;;;;;;;;;6320664;22;20169;-86
2022/04/09 09:09:32;;;;;;;8.05;3.40;;;;;;;;;;6319286;22;20166;-87
2022/04/09 09:12:39;;;;;;;7.93;3.10;;;;;;;;;;6302411;22;20152;-87
2022/04/09 09:15:48;;;;;;;7.43;2.78;;;;;;;;;;6319173;22;20196;-87
2022/04/09 09:18:58;;;;;;;4.65;2.38;;;;;;;;;;6300468;22;20244;-86
2022/04/09 09:22:06;;;;;;;5.97;2.70;;;;;;;;;;6300282;22;20169;-85
2022/04/09 09:25:13;;;;;;;6.28;2.63;;;;;;;;;;6318143;22;20348;-86
2022/04/09 09:28:27;;;;;;;6.68;2.33;;;;;;;;;;6302017;22;20161;-86
2022/04/09 09:31:42;;;;;;;5.53;2.30;;;;;;;;;;6320427;22;20173;-86
2022/04/09 09:34:54;;;;;;;5.73;2.80;;;;;;;;;;6301390;22;20637;-87
2022/04/09 09:38:18;;;;;;;8.60;2.90;;;;;;;;;;6316799;22;20173;-87
2022/04/09 09:41:24;;;;;;;8.50;3.17;;;;;;;;;;6319739;22;20264;-85
2022/04/09 09:44:32;;;;;;;11.13;4.00;;;;;;;;;;6317807;22;20173;-87
2022/04/09 09:47:37;;;;;;;7.17;2.77;;;;;;;;;;6319724;22;20184;-87
2022/04/09 09:50:42;;;;;;;4.53;2.47;;;;;;;;;;6302386;22;20192;-87
2022/04/09 09:53:47;;;;;;;6.80;2.60;;;;;;;;;;6302639;22;20169;-87
2022/04/09 09:56:52;;;;;;;5.43;2.40;;;;;;;;;;6318350;22;20196;-85
2022/04/09 09:59:59;;;;;;;9.40;2.30;;;;;;;;;;6322154;22;20172;-86
2022/04/09 10:03:09;;;;;;;17.67;7.37;;;;;;;;;;6303244;22;20505;-86
2022/04/09 10:06:15;;;;;;;5.67;2.30;;;;;;;;;;6322351;22;20192;-86
2022/04/09 10:09:21;;;;;;;4.47;2.00;;;;;;;;;;6320464;22;20173;-86
2022/04/09 10:12:26;;;;;;;6.23;2.37;;;;;;;;;;6323127;22;20165;-85
2022/04/09 10:15:33;;;;;;;5.37;2.03;;;;;;;;;;6300885;22;20172;-86
2022/04/09 10:18:44;;;;;;;8.37;2.20;;;;;;;;;;6301470;22;20189;-86
2022/04/09 10:21:51;;;;;;;6.60;2.33;;;;;;;;;;6301310;22;20376;-87
2022/04/09 10:24:57;;;;;;;4.47;1.87;;;;;;;;;;6301753;22;20257;-85
2022/04/09 10:28:03;;;;;;;7.67;2.10;;;;;;;;;;6320110;22;20165;-88
2022/04/09 10:31:29;;;;;;;4.20;1.83;;;;;;;;;;6319944;22;20169;-86
2022/04/09 10:34:50;;;;;;;9.88;2.30;;;;;;;;;;6322488;22;20141;-85
2022/04/09 10:38:14;;;;;;;8.52;2.25;;;;;;;;;;6320186;22;20217;-86
2022/04/09 10:41:28;;;;;;;4.77;1.83;;;;;;;;;;6316628;22;20495;-86
2022/04/09 10:44:35;;;;;;;9.00;2.50;;;;;;;;;;6320048;22;20168;-85
2022/04/09 10:47:55;;;;;;;5.13;2.20;;;;;;;;;;6320682;22;20168;-86
2022/04/09 10:51:04;;;;;;;6.23;2.30;;;;;;;;;;6303286;22;20166;-85
2022/04/09 10:54:22;;;;;;;4.87;1.90;;;;;;;;;;6324770;22;20152;-86
2022/04/09 10:57:28;;;;;;;6.00;1.53;;;;;;;;;;6319884;22;20210;-87
2022/04/09 11:00:37;;;;;;;10.30;2.23;;;;;;;;;;6323424;22;20169;-88
2022/04/09 11:03:42;;;;;;;9.07;2.10;;;;;;;;;;6302783;22;20169;-87
2022/04/09 11:07:01;;;;;;;2.23;1.13;;;;;;;;;;6318688;22;20157;-87
2022/04/09 11:10:07;;;;;;;2.53;1.42;;;;;;;;;;6301649;22;20170;-88
2022/04/09 11:13:18;;;;;;;4.18;1.70;;;;;;;;;;6303576;22;20188;-87
2022/04/09 11:16:25;;;;;;;4.40;1.55;;;;;;;;;;6303627;22;20817;-85
2022/04/09 11:19:30;;;;;;;5.70;1.70;;;;;;;;;;6319977;22;20192;-86
2022/04/09 11:22:39;;;;;;;6.28;2.08;;;;;;;;;;6319604;22;20206;-87
2022/04/09 11:25:46;;;;;;;7.65;1.83;;;;;;;;;;6319953;22;20212;-87
2022/04/09 11:28:51;;;;;;;4.05;1.73;;;;;;;;;;6321704;22;20169;-88
2022/04/09 11:31:56;;;;;;;3.63;1.88;;;;;;;;;;6302229;22;20239;-87
2022/04/09 11:35:02;;;;;;;5.68;1.88;;;;;;;;;;6320742;22;20480;-86
2022/04/09 11:38:15;;;;;;;5.35;1.70;;;;;;;;;;6321133;22;20213;-89
2022/04/09 11:41:21;;;;;;;4.40;1.90;;;;;;;;;;6320953;22;20605;-87
2022/04/09 11:44:29;;;;;;;6.25;1.77;;;;;;;;;;6302353;22;20169;-86
2022/04/09 11:47:37;;;;;;;5.35;2.00;;;;;;;;;;6319538;22;20169;-86
2022/04/09 11:50:42;;;;;;;4.55;1.70;;;;;;;;;;6300390;22;20165;-87
2022/04/09 11:53:48;;;;;;;8.15;1.83;;;;;;;;;;6320709;22;20247;-85
2022/04/09 11:56:53;;;;;;;5.88;2.35;;;;;;;;;;6320276;22;20219;-85
2022/04/09 11:59:59;;;;;;;7.68;2.65;;;;;;;;;;6301995;22;20619;-87
2022/04/09 12:03:06;;;;;;;4.68;2.28;;;;;;;;;;6304262;22;20168;-85
2022/04/09 12:06:12;;;;;;;2.97;1.70;;;;;;;;;;6319361;22;20181;-85
2022/04/09 12:09:21;;;;;;;13.00;2.43;;;;;;;;;;6321399;22;20202;-86
2022/04/09 12:12:26;;;;;;;5.83;2.00;;;;;;;;;;6322126;22;20613;-86
2022/04/09 12:15:32;;;;;;;4.50;2.05;;;;;;;;;;6318468;22;20513;-87
2022/04/09 12:18:42;;;;;;;3.92;1.80;;;;;;;;;;6300873;22;20145;-86
2022/04/09 12:21:48;;;;;;;5.82;2.20;;;;;;;;;;6321266;22;20173;-88
2022/04/09 12:24:57;;;;;;;11.98;2.40;;;;;;;;;;6318457;22;20173;-87
2022/04/09 12:28:03;;;;;;;7.32;2.65;;;;;;;;;;6322466;22;20169;-87
2022/04/09 12:31:24;;;;;;;9.18;2.70;;;;;;;;;;6321728;22;20216;-87
2022/04/09 12:34:30;;;;;;;5.45;2.30;;;;;;;;;;6322991;22;20153;-84
2022/04/09 12:37:44;;;;;;;9.43;3.85;;;;;;;;;;6323977;22;20603;-88
2022/04/09 12:41:01;;;;;;;5.43;2.58;;;;;;;;;;6303153;22;20191;-86
2022/04/09 12:44:22;;;;;;;7.72;2.40;;;;;;;;;;6304285;22;20216;-85
2022/04/09 12:47:27;;;;;;;6.78;2.63;;;;;;;;;;6322650;22;20197;-86
2022/04/09 12:50:33;;;;;;;7.40;2.10;;;;;;;;;;6304693;22;20233;-87
2022/04/09 12:53:38;;;;;;;6.38;2.08;;;;;;;;;;6305555;22;20196;-85
2022/04/09 12:56:45;;;;;;;6.20;1.90;;;;;;;;;;6304475;22;20169;-85
2022/04/09 12:59:50;;;;;;;6.85;1.90;;;;;;;;;;6322625;22;20192;-86
2022/04/09 13:02:55;;;;;;;7.70;2.22;;;;;;;;;;6320514;22;20223;-87
2022/04/09 13:06:01;;;;;;;3.67;1.83;;;;;;;;;;6303883;22;20169;-86
2022/04/09 13:09:06;;;;;;;5.53;1.90;;;;;;;;;;6323450;22;20168;-86
2022/04/09 13:12:12;;;;;;;7.75;1.98;;;;;;;;;;6324716;22;20168;-87
2022/04/09 13:15:18;;;;;;;6.22;1.40;;;;;;;;;;6323841;22;20189;-88
2022/04/09 13:18:24;;;;;;;4.75;1.58;;;;;;;;;;6304273;22;20194;-86
2022/04/09 13:21:29;;;;;;;5.35;1.65;;;;;;;;;;6304415;22;20152;-85
2022/04/09 13:24:34;;;;;;;5.40;1.95;;;;;;;;;;6322792;22;20148;-86
2022/04/09 13:27:44;;;;;;;6.28;1.75;;;;;;;;;;6304703;22;20213;-87
2022/04/09 13:30:49;;;;;;;4.78;1.60;;;;;;;;;;6321231;22;20267;-86
2022/04/09 13:33:54;;;;;;;3.97;1.63;;;;;;;;;;6304625;22;20168;-86
2022/04/09 13:37:00;;;;;;;2.67;1.20;;;;;;;;;;6322378;22;20164;-86
2022/04/09 13:40:06;;;;;;;5.85;1.38;;;;;;;;;;6322616;22;20200;-86
2022/04/09 13:43:15;;;;;;;5.20;1.40;;;;;;;;;;6322508;22;20193;-85
2022/04/09 13:46:20;;;;;;;4.25;1.73;;;;;;;;;;6324466;22;20204;-86
2022/04/09 13:49:25;;;;;;;5.47;1.70;;;;;;;;;;6324573;22;20677;-87
2022/04/09 13:52:31;;;;;;;4.13;1.48;;;;;;;;;;6323658;22;20496;-86
2022/04/09 13:55:36;;;;;;;8.45;1.30;;;;;;;;;;6301015;22;20149;-85
2022/04/09 13:58:43;;;;;;;4.60;1.27;;;;;;;;;;6320297;22;20184;-86
2022/04/09 14:01:49;;;;;;;4.10;1.30;;;;;;;;;;6303657;22;20169;-85
2022/04/09 14:04:55;;;;;;;4.53;1.40;;;;;;;;;;6318315;22;20558;-84
2022/04/09 14:08:00;;;;;;;6.18;1.45;;;;;;;;;;6318902;22;20170;-85
2022/04/09 14:11:05;;;;;;;3.30;1.42;;;;;;;;;;6297482;22;20169;-85
2022/04/09 14:14:13;;;;;;;3.85;1.58;;;;;;;;;;6319495;22;20237;-88
2022/04/09 14:17:19;;;;;;;2.85;1.65;;;;;;;;;;6304421;22;20165;-85
2022/04/09 14:20:25;;;;;;;8.13;2.22;;;;;;;;;;6301373;22;20278;-87
2022/04/09 14:23:31;;;;;;;6.50;1.80;;;;;;;;;;6317250;22;20165;-85
2022/04/09 14:26:36;;;;;;;5.63;1.77;;;;;;;;;;6297772;22;20161;-86
2022/04/09 14:29:42;;;;;;;9.18;2.17;;;;;;;;;;6318305;22;20156;-86
2022/04/09 14:32:48;;;;;;;7.47;1.73;;;;;;;;;;6318521;22;20165;-85
2022/04/09 14:35:54;;;;;;;5.30;1.70;;;;;;;;;;6318333;22;20169;-87
2022/04/09 14:39:05;;;;;;;3.13;1.27;;;;;;;;;;6300048;22;20619;-87
2022/04/09 14:42:11;;;;;;;8.02;1.27;;;;;;;;;;6318292;22;20169;-87
2022/04/09 14:45:17;;;;;;;3.65;1.33;;;;;;;;;;6319445;22;20169;-86
2022/04/09 14:48:23;;;;;;;4.28;1.10;;;;;;;;;;6320040;22;20169;-87
2022/04/09 14:51:28;;;;;;;3.78;1.35;;;;;;;;;;6302352;22;20259;-83
2022/04/09 14:54:34;;;;;;;5.53;1.30;;;;;;;;;;6301811;22;20251;-85
2022/04/09 14:57:39;;;;;;;2.47;1.17;;;;;;;;;;6317227;22;20231;-85
2022/04/09 15:00:46;;;;;;;4.80;1.50;;;;;;;;;;6300267;22;20199;-84
2022/04/09 15:03:51;;;;;;;3.22;1.30;;;;;;;;;;6300324;22;20237;-86
2022/04/09 15:06:56;;;;;;;7.20;1.55;;;;;;;;;;6319609;22;20149;-85
2022/04/09 15:10:02;;;;;;;9.73;1.58;;;;;;;;;;6320495;22;20548;-85
2022/04/09 15:13:08;;;;;;;4.70;1.50;;;;;;;;;;6300908;22;20164;-87
2022/04/09 15:16:15;;;;;;;4.82;1.52;;;;;;;;;;6318136;22;20564;-84
2022/04/09 15:19:22;;;;;;;3.00;1.35;;;;;;;;;;6317844;22;20157;-84
2022/04/09 15:22:27;;;;;;;5.50;1.40;;;;;;;;;;6300812;22;20650;-84
2022/04/09 15:25:33;;;;;;;5.40;1.38;;;;;;;;;;6299328;22;20157;-88
2022/04/09 15:28:39;;;;;;;3.55;1.48;;;;;;;;;;6321442;22;20173;-85
2022/04/09 15:31:45;;;;;;;4.40;1.50;;;;;;;;;;6317955;22;20239;-84
2022/04/09 15:34:50;;;;;;;5.88;1.48;;;;;;;;;;6318927;22;20161;-85
2022/04/09 15:37:56;;;;;;;4.47;1.60;;;;;;;;;;6300010;22;20165;-86
2022/04/09 15:41:01;;;;;;;7.32;1.77;;;;;;;;;;6320280;22;20192;-85
2022/04/09 15:44:07;;;;;;;3.10;1.33;;;;;;;;;;6319367;22;20161;-84
2022/04/09 15:47:14;;;;;;;6.15;1.67;;;;;;;;;;6301048;22;20628;-85
2022/04/09 15:50:22;;;;;;;8.45;1.98;;;;;;;;;;6298628;22;20172;-85
2022/04/09 15:53:27;;;;;;;6.05;1.60;;;;;;;;;;6318779;22;20200;-86
2022/04/09 15:56:35;;;;;;;6.50;2.08;;;;;;;;;;6303850;22;20200;-86
2022/04/09 15:59:40;;;;;;;4.38;1.52;;;;;;;;;;6321387;22;20169;-86
2022/04/09 16:02:47;;;;;;;5.47;1.60;;;;;;;;;;6303191;22;20235;-84
2022/04/09 16:05:52;;;;;;;5.32;1.60;;;;;;;;;;6319628;22;20187;-85
2022/04/09 16:08:57;;;;;;;3.42;1.23;;;;;;;;;;6320386;22;20214;-83
2022/04/09 16:12:03;;;;;;;4.78;1.30;;;;;;;;;;6318804;22;20551;-84
2022/04/09 16:15:11;;;;;;;5.07;1.63;;;;;;;;;;6321053;22;20258;-85
2022/04/09 16:18:17;;;;;;;2.08;1.23;;;;;;;;;;6300422;22;20284;-86
2022/04/09 16:21:22;;;;;;;3.15;1.50;;;;;;;;;;6321346;22;20188;-85
2022/04/09 16:24:27;;;;;;;7.03;1.52;;;;;;;;;;6318099;22;20169;-82
2022/04/09 16:27:32;;;;;;;11.02;2.05;;;;;;;;;;6300721;22;20141;-85
2022/04/09 16:30:38;;;;;;;4.40;1.50;;;;;;;;;;6301322;22;20598;-84
2022/04/09 16:33:44;;;;;;;9.07;1.92;;;;;;;;;;6319920;22;20247;-86
2022/04/09 16:36:49;;;;;;;5.80;1.45;;;;;;;;;;6318186;22;20165;-83
2022/04/09 16:39:56;;;;;;;9.30;1.67;;;;;;;;;;6318730;22;20161;-84
2022/04/09 16:43:01;;;;;;;5.10;1.27;;;;;;;;;;6321521;22;20254;-82
2022/04/09 16:46:07;;;;;;;4.40;1.48;;;;;;;;;;6318808;22;20207;-84
2022/04/09 16:49:14;;;;;;;3.35;1.42;;;;;;;;;;6320047;22;20165;-86
2022/04/09 16:52:19;;;;;;;3.97;1.52;;;;;;;;;;6317466;22;20161;-84
2022/04/09 16:55:23;;;;;;;8.70;1.63;;;;;;;;;;6300906;22;20269;-86
2022/04/09 16:58:29;;;;;;;8.20;1.63;;;;;;;;;;6317468;22;20213;-84
2022/04/09 17:01:34;;;;;;;4.82;1.40;;;;;;;;;;6320649;22;20191;-85
2022/04/09 17:04:44;;;;;;;7.40;1.70;;;;;;;;;;6319355;22;20168;-84
2022/04/09 17:07:49;;;;;;;5.55;1.90;;;;;;;;;;6320324;22;20181;-85
2022/04/09 17:10:54;;;;;;;3.97;1.60;;;;;;;;;;6318046;22;20164;-85
2022/04/09 17:13:59;;;;;;;7.47;1.83;;;;;;;;;;6301216;22;20197;-85
2022/04/09 17:17:05;;;;;;;4.88;1.50;;;;;;;;;;6299915;22;20433;-80
2022/04/09 17:20:12;;;;;;;4.25;1.67;;;;;;;;;;6317969;22;20268;-85
2022/04/09 17:23:17;;;;;;;8.80;1.50;;;;;;;;;;6319588;22;20165;-85
2022/04/09 17:26:23;;;;;;;4.80;1.95;;;;;;;;;;6301546;22;20165;-85
2022/04/09 17:29:32;;;;;;;4.47;1.63;;;;;;;;;;6301185;22;20284;-83
2022/04/09 17:32:37;;;;;;;6.55;1.90;;;;;;;;;;6299637;22;20165;-85
2022/04/09 17:35:44;;;;;;;7.83;2.10;;;;;;;;;;6319674;22;20161;-85
2022/04/09 17:38:49;;;;;;;4.07;1.53;;;;;;;;;;6320434;22;20245;-85
2022/04/09 17:41:54;;;;;;;5.83;1.67;;;;;;;;;;6302066;22;20690;-84
2022/04/09 17:44:59;;;;;;;5.70;1.73;;;;;;;;;;6301891;22;20165;-85
2022/04/09 17:48:04;;;;;;;5.20;1.83;;;;;;;;;;6301371;22;20520;-84
2022/04/09 17:51:11;;;;;;;4.80;1.80;;;;;;;;;;6300983;22;20165;-84
2022/04/09 17:54:16;;;;;;;7.90;1.70;;;;;;;;;;6320550;22;20496;-84
2022/04/09 17:57:21;;;;;;;8.47;2.10;;;;;;;;;;6319204;22;20911;-85
2022/04/09 18:00:29;;;;;;;7.93;1.73;;;;;;;;;;6302737;22;20299;-84
2022/04/09 18:03:34;;;;;;;4.50;1.60;;;;;;;;;;6302531;22;20192;-84
2022/04/09 18:06:41;;;;;;;5.40;1.80;;;;;;;;;;6316804;22;20187;-85
2022/04/09 18:09:46;;;;;;;6.37;2.00;;;;;;;;;;6299869;22;20172;-84
2022/04/09 18:12:51;;;;;;;9.77;2.20;;;;;;;;;;6318966;22;20165;-84
2022/04/09 18:15:55;;;;;;;8.23;1.80;;;;;;;;;;6318465;22;20197;-85
2022/04/09 18:19:01;;;;;;;9.80;2.33;;;;;;;;;;6319624;22;20173;-85
2022/04/09 18:22:09;;;;;;;14.27;5.13;;;;;;;;;;6300248;22;20239;-85
2022/04/09 18:25:14;;;;;;;12.83;4.47;;;;;;;;;;6299114;22;20169;-83
2022/04/09 18:28:19;;;;;;;5.63;1.80;;;;;;;;;;6318331;22;20166;-84
2022/04/09 18:31:24;;;;;;;6.43;2.03;;;;;;;;;;6320974;22;20168;-85
2022/04/09 18:34:30;;;;;;;12.50;4.37;;;;;;;;;;6301038;22;20165;-84
2022/04/09 18:37:37;;;;;;;8.20;2.10;;;;;;;;;;6302605;22;20181;-84